createdAt,value
2022-08-29T00:04:19.175Z,10.50
2022-08-29T00:09:20.872Z,15.93
2022-08-29T00:14:23.399Z,13.57
2022-08-29T00:19:25.432Z,19.30
2022-08-29T00:24:27.388Z,15.77
2022-08-29T00:29:30.191Z,15.27
2022-08-29T00:34:32.259Z,16.00
2022-08-29T00:39:34.117Z,10.93
2022-08-29T00:44:36.410Z,12.10
2022-08-29T00:49:49.651Z,17.33
2022-08-29T00:54:51.899Z,8.40
2022-08-29T00:59:53.580Z,10.30
2022-08-29T01:04:55.612Z,11.73
2022-08-29T01:09:57.273Z,15.53
2022-08-29T01:15:10.522Z,14.57
2022-08-29T01:20:40.461Z,17.67
2022-08-29T01:25:46.220Z,12.30
2022-08-29T01:31:05.203Z,12.00
2022-08-29T01:36:07.877Z,14.10
2022-08-29T01:41:10.340Z,12.17
2022-08-29T01:46:14.267Z,10.40
2022-08-29T01:51:15.992Z,10.53
2022-08-29T01:56:28.785Z,13.40
2022-08-29T02:01:32.944Z,10.83
2022-08-29T02:06:34.993Z,11.83
2022-08-29T02:11:36.707Z,16.40
2022-08-29T02:16:38.406Z,19.00
2022-08-29T02:21:41.007Z,14.00
2022-08-29T02:26:42.706Z,17.90
2022-08-29T02:31:44.429Z,14.93
2022-08-29T02:36:46.494Z,10.00
2022-08-29T02:41:51.131Z,13.63
2022-08-29T02:46:52.878Z,13.70
2022-08-29T02:51:54.624Z,16.83
2022-08-29T02:56:56.301Z,18.87
2022-08-29T03:01:58.171Z,16.30
2022-08-29T03:06:59.887Z,11.97
2022-08-29T03:12:01.653Z,13.40
2022-08-29T03:17:03.518Z,14.20
2022-08-29T03:22:05.313Z,12.80
2022-08-29T03:27:07.073Z,10.17
2022-08-29T03:32:08.745Z,12.53
2022-08-29T03:37:10.437Z,14.63
2022-08-29T03:42:12.102Z,20.60
2022-08-29T03:47:13.777Z,15.53
2022-08-29T03:52:16.064Z,18.60
2022-08-29T03:57:17.882Z,17.97
2022-08-29T04:02:19.552Z,20.37
2022-08-29T04:07:21.222Z,15.37
2022-08-29T04:12:22.894Z,15.70
2022-08-29T04:17:24.547Z,14.23
2022-08-29T04:22:26.213Z,19.57
2022-08-29T04:27:27.894Z,11.57
2022-08-29T04:32:30.315Z,18.00
2022-08-29T04:37:31.983Z,13.17
2022-08-29T04:42:35.945Z,26.63
2022-08-29T04:47:38.193Z,20.27
2022-08-29T04:52:39.982Z,15.60
2022-08-29T04:57:41.722Z,16.37
2022-08-29T05:02:43.670Z,14.07
2022-08-29T05:07:46.436Z,13.90
2022-08-29T05:12:48.208Z,19.10
2022-08-29T05:17:50.232Z,15.73
2022-08-29T05:22:51.900Z,13.10
2022-08-29T05:27:53.572Z,18.00
2022-08-29T05:32:56.028Z,12.13
2022-08-29T05:37:57.761Z,16.77
2022-08-29T05:42:59.421Z,17.40
2022-08-29T05:48:03.102Z,14.30
2022-08-29T05:53:04.788Z,13.43
2022-08-29T05:58:06.445Z,15.57
2022-08-29T06:03:08.497Z,18.33
2022-08-29T06:08:10.250Z,14.80
2022-08-29T06:13:12.433Z,16.43
2022-08-29T06:18:14.214Z,16.10
2022-08-29T06:23:15.949Z,14.17
2022-08-29T06:28:23.768Z,22.33
2022-08-29T06:33:25.889Z,18.87
2022-08-29T06:38:27.559Z,19.03
2022-08-29T06:43:29.255Z,19.27
2022-08-29T06:48:30.970Z,23.70
2022-08-29T06:53:33.083Z,22.17
2022-08-29T06:58:38.730Z,25.70
2022-08-29T07:03:41.130Z,22.33
2022-08-29T07:08:53.264Z,27.73
2022-08-29T07:13:58.566Z,28.83
2022-08-29T07:19:01.593Z,24.43
2022-08-29T07:24:03.443Z,29.77
2022-08-29T07:29:09.064Z,28.13
2022-08-29T07:34:10.748Z,25.83
2022-08-29T07:39:14.504Z,28.20
2022-08-29T07:44:16.838Z,29.47
2022-08-29T07:49:18.504Z,36.13
2022-08-29T07:54:21.768Z,27.53
2022-08-29T07:59:24.167Z,29.60
2022-08-29T08:04:25.825Z,33.37
2022-08-29T08:09:27.621Z,27.17
2022-08-29T08:14:34.730Z,20.43
2022-08-29T08:19:37.543Z,23.57
2022-08-29T08:24:39.227Z,24.87
2022-08-29T08:29:40.953Z,29.63
2022-08-29T08:34:43.013Z,31.27
2022-08-29T08:39:44.732Z,21.50
2022-08-29T08:44:58.079Z,23.40
2022-08-29T08:50:45.461Z,24.80
2022-08-29T08:55:53.505Z,24.53
2022-08-29T09:00:58.338Z,22.07
2022-08-29T09:06:07.837Z,26.20
2022-08-29T09:11:45.221Z,22.80
2022-08-29T09:16:49.374Z,22.53
2022-08-29T09:21:53.867Z,24.13
2022-08-29T09:26:56.270Z,18.70
2022-08-29T09:32:12.128Z,25.00
2022-08-29T09:37:25.928Z,20.50
2022-08-29T09:42:33.752Z,18.97
2022-08-29T09:47:35.983Z,17.83
2022-08-29T09:52:40.069Z,18.93
2022-08-29T09:57:41.733Z,22.77
2022-08-29T10:02:43.825Z,17.10
2022-08-29T10:07:50.010Z,16.73
2022-08-29T10:13:11.710Z,12.83
2022-08-29T10:18:24.073Z,16.80
2022-08-29T10:23:37.254Z,14.50
2022-08-29T10:28:43.177Z,17.73
2022-08-29T10:34:11.207Z,15.27
2022-08-29T10:39:19.228Z,16.23
2022-08-29T10:44:23.875Z,22.27
2022-08-29T10:49:43.029Z,19.80
2022-08-29T10:55:03.565Z,15.23
2022-08-29T11:00:14.947Z,16.17
2022-08-29T11:05:20.702Z,18.40
2022-08-29T11:10:27.023Z,21.77
2022-08-29T11:15:34.167Z,15.10
2022-08-29T11:20:41.847Z,11.90
2022-08-29T11:25:44.142Z,16.60
2022-08-29T11:31:02.864Z,16.03
2022-08-29T11:36:27.681Z,11.40
2022-08-29T11:41:45.967Z,13.20
2022-08-29T11:46:53.450Z,15.40
2022-08-29T11:52:00.163Z,10.27
2022-08-29T11:57:02.182Z,11.43
2022-08-29T12:02:03.956Z,13.00
2022-08-29T12:07:05.682Z,8.30
2022-08-29T12:12:13.084Z,7.60
2022-08-29T12:17:26.531Z,7.00
2022-08-29T12:22:51.857Z,10.97
2022-08-29T12:28:02.671Z,6.70
2022-08-29T12:33:26.059Z,8.27
2022-08-29T12:38:50.604Z,7.90
2022-08-29T12:43:54.141Z,7.70
2022-08-29T12:49:16.613Z,8.03
2022-08-29T12:54:29.060Z,5.57
2022-08-29T12:59:31.847Z,5.67
2022-08-29T13:04:35.178Z,7.43
2022-08-29T13:09:42.985Z,7.80
2022-08-29T13:15:02.311Z,5.93
2022-08-29T13:20:38.049Z,6.90
2022-08-29T13:25:47.335Z,6.23
2022-08-29T13:31:11.173Z,8.40
2022-08-29T13:36:30.376Z,4.60
2022-08-29T13:41:32.041Z,11.20
2022-08-29T13:46:33.748Z,5.70
2022-08-29T13:51:35.460Z,7.70
2022-08-29T14:07:05.653Z,3.67
2022-08-29T14:12:07.658Z,4.57
2022-08-29T14:17:09.560Z,7.07
2022-08-29T14:22:14.083Z,6.40
2022-08-29T14:27:15.767Z,4.97
2022-08-29T14:32:17.484Z,3.70
2022-08-29T14:37:19.864Z,3.53
2022-08-29T14:42:21.520Z,4.10
2022-08-29T14:47:23.248Z,3.90
2022-08-29T14:52:25.147Z,11.67
2022-08-29T14:57:26.954Z,5.60
2022-08-29T15:02:28.692Z,4.13
2022-08-29T15:07:30.398Z,6.63
2022-08-29T15:12:32.055Z,6.63
2022-08-29T15:17:35.156Z,5.60
2022-08-29T15:22:39.668Z,3.77
2022-08-29T15:27:41.796Z,2.83
2022-08-29T15:32:43.455Z,2.70
2022-08-29T15:37:50.839Z,6.03
2022-08-29T15:42:52.533Z,5.30
2022-08-29T15:47:54.400Z,4.67
2022-08-29T15:52:56.108Z,6.17
2022-08-29T15:57:57.916Z,2.57
2022-08-29T16:03:01.081Z,2.93
2022-08-29T16:08:03.106Z,2.30
2022-08-29T16:13:04.831Z,5.33
2022-08-29T16:18:06.684Z,6.40
2022-08-29T16:23:08.355Z,6.87
2022-08-29T16:28:10.014Z,1.90
2022-08-29T16:33:11.699Z,2.27
2022-08-29T16:38:13.431Z,3.00
2022-08-29T16:43:15.157Z,2.13
2022-08-29T16:48:17.722Z,7.07
2022-08-29T16:53:20.704Z,2.33
2022-08-29T16:58:41.063Z,4.30
2022-08-29T17:03:42.939Z,1.90
2022-08-29T17:08:44.602Z,2.60
2022-08-29T17:13:46.228Z,2.00
2022-08-29T17:18:48.084Z,11.23
2022-08-29T17:23:49.909Z,7.57
2022-08-29T17:28:51.832Z,4.07
2022-08-29T17:33:53.496Z,6.87
2022-08-29T17:38:55.413Z,4.40
2022-08-29T17:43:57.086Z,6.07
2022-08-29T17:48:58.767Z,1.97
2022-08-29T17:54:00.433Z,2.53
2022-08-29T17:59:05.339Z,1.47
2022-08-29T18:04:08.281Z,4.93
2022-08-29T18:09:10.025Z,7.40
2022-08-29T18:14:11.755Z,5.27
2022-08-29T18:19:13.473Z,6.33
2022-08-29T18:24:15.693Z,4.70
2022-08-29T18:29:17.604Z,1.47
2022-08-29T18:34:19.301Z,6.80
2022-08-29T18:39:20.977Z,14.23
2022-08-29T18:44:24.569Z,6.27
2022-08-29T18:49:45.043Z,5.87
2022-08-29T18:54:46.711Z,5.10
2022-08-29T18:59:48.486Z,1.37
2022-08-29T19:04:50.704Z,3.53
2022-08-29T19:09:53.000Z,4.60
2022-08-29T19:14:56.110Z,6.70
2022-08-29T19:20:16.388Z,2.80
2022-08-29T19:25:18.068Z,1.70
2022-08-29T19:30:19.751Z,1.50
2022-08-29T19:35:22.065Z,2.67
2022-08-29T19:40:23.833Z,4.53
2022-08-29T19:45:25.557Z,1.20
2022-08-29T19:50:27.275Z,2.20
2022-08-29T19:55:29.113Z,3.07
2022-08-29T20:00:30.777Z,2.57
2022-08-29T20:05:32.491Z,2.50
2022-08-29T20:10:34.893Z,3.17
2022-08-29T20:15:36.544Z,1.83
2022-08-29T20:20:38.192Z,2.33
2022-08-29T20:25:41.098Z,2.67
2022-08-29T20:30:42.851Z,0.90
2022-08-29T20:36:03.127Z,2.30
2022-08-29T20:41:04.856Z,2.27
2022-08-29T20:46:07.920Z,1.97
2022-08-29T20:51:09.859Z,0.80
2022-08-29T20:56:12.151Z,5.93
2022-08-29T21:01:13.942Z,3.83
2022-08-29T21:06:18.300Z,1.30
2022-08-29T21:11:20.729Z,2.50
2022-08-29T21:16:22.661Z,3.43
2022-08-29T21:21:25.188Z,2.70
2022-08-29T21:26:26.964Z,3.50
2022-08-29T21:31:28.683Z,1.77
2022-08-29T21:36:30.421Z,2.07
2022-08-29T21:41:32.307Z,2.83
2022-08-29T21:46:36.122Z,2.93
2022-08-29T21:51:37.926Z,2.40
2022-08-29T21:56:39.604Z,1.63
2022-08-29T22:01:41.480Z,1.03
2022-08-29T22:06:43.682Z,6.27
2022-08-29T22:11:46.045Z,1.17
2022-08-29T22:16:47.716Z,2.43
2022-08-29T22:21:51.834Z,1.40
2022-08-29T22:26:53.511Z,2.43
2022-08-29T22:31:56.735Z,1.43
2022-08-29T22:36:58.385Z,1.17
2022-08-29T22:42:00.047Z,1.40
2022-08-29T22:47:02.149Z,2.97
2022-08-29T22:52:04.325Z,1.30
2022-08-29T22:57:07.996Z,2.70
2022-08-29T23:02:09.881Z,3.27
2022-08-29T23:07:12.233Z,2.20
2022-08-29T23:12:13.970Z,4.77
2022-08-29T23:17:15.804Z,8.33
2022-08-29T23:22:17.491Z,5.43
2022-08-29T23:27:19.232Z,2.57
2022-08-29T23:32:20.938Z,2.43
2022-08-29T23:37:22.797Z,2.60
2022-08-29T23:42:24.744Z,4.90
2022-08-29T23:47:26.426Z,2.57
2022-08-29T23:52:28.137Z,3.07
2022-08-29T23:57:29.829Z,1.77
